createdAt,value
2023-06-20T00:00:13.304Z,82.40
2023-06-20T00:03:13.440Z,81.50
2023-06-20T00:05:42.583Z,81.60
2023-06-20T00:08:19.389Z,81.60
2023-06-20T00:10:48.566Z,81.60
2023-06-20T00:13:19.179Z,81.60
2023-06-20T00:15:49.748Z,81.80
2023-06-20T00:18:29.770Z,82.00
2023-06-20T00:20:58.835Z,82.20
2023-06-20T00:23:31.047Z,82.40
2023-06-20T00:26:00.229Z,82.50
2023-06-20T00:28:36.296Z,82.50
2023-06-20T00:34:31.865Z,82.50
2023-06-20T00:43:28.435Z,82.20
2023-06-20T00:47:11.979Z,82.10
2023-06-20T00:50:06.996Z,82.20
2023-06-20T00:52:44.493Z,82.20
2023-06-20T00:55:16.193Z,82.20
2023-06-20T00:57:49.724Z,82.40
2023-06-20T01:00:19.384Z,82.30
2023-06-20T01:02:57.244Z,82.30
2023-06-20T01:05:32.870Z,82.30
2023-06-20T01:08:27.463Z,82.30
2023-06-20T01:11:04.579Z,82.30
2023-06-20T01:13:45.895Z,83.10
2023-06-20T01:16:22.536Z,82.30
2023-06-20T01:19:01.528Z,82.30
2023-06-20T01:22:20.322Z,82.30
2023-06-20T01:25:19.289Z,82.40
2023-06-20T01:28:01.367Z,82.10
2023-06-20T01:31:10.513Z,82.10
2023-06-20T01:33:51.642Z,82.10
2023-06-20T01:36:22.563Z,82.10
2023-06-20T01:38:57.377Z,82.10
2023-06-20T01:41:29.198Z,82.40
2023-06-20T01:44:03.731Z,82.40
2023-06-20T01:49:22.581Z,82.70
2023-06-20T01:52:00.233Z,83.50
2023-06-20T01:54:35.974Z,82.70
2023-06-20T01:57:08.603Z,82.70
2023-06-20T01:59:38.772Z,82.60
2023-06-20T02:02:10.894Z,82.60
2023-06-20T02:04:40.465Z,82.60
2023-06-20T02:07:11.675Z,82.90
2023-06-20T02:09:43.570Z,83.00
2023-06-20T02:12:18.398Z,83.00
2023-06-20T02:14:49.364Z,83.00
2023-06-20T02:17:22.758Z,83.00
2023-06-20T02:20:00.250Z,82.90
2023-06-20T02:22:33.589Z,82.90
2023-06-20T02:25:08.673Z,83.00
2023-06-20T02:27:41.958Z,82.90
2023-06-20T02:30:25.513Z,82.90
2023-06-20T02:35:52.074Z,82.60
2023-06-20T02:38:41.546Z,82.60
2023-06-20T02:41:13.212Z,82.60
2023-06-20T02:43:43.675Z,82.70
2023-06-20T02:46:21.835Z,82.80
2023-06-20T02:52:15.266Z,82.90
2023-06-20T02:57:53.212Z,83.30
2023-06-20T03:00:24.687Z,82.90
2023-06-20T03:03:01.826Z,83.20
2023-06-20T03:05:33.462Z,83.30
2023-06-20T03:08:03.299Z,83.20
2023-06-20T03:10:36.905Z,83.20
2023-06-20T03:13:07.248Z,83.20
2023-06-20T03:15:38.204Z,83.10
2023-06-20T03:18:09.417Z,83.10
2023-06-20T03:20:39.652Z,83.90
2023-06-20T03:23:09.731Z,83.00
2023-06-20T03:25:38.823Z,83.20
2023-06-20T03:28:11.236Z,83.20
2023-06-20T03:30:51.830Z,83.30
2023-06-20T03:33:21.661Z,83.40
2023-06-20T03:35:51.604Z,83.50
2023-06-20T03:38:21.174Z,83.50
2023-06-20T03:40:53.075Z,83.70
2023-06-20T03:43:22.273Z,83.70
2023-06-20T03:45:58.552Z,83.70
2023-06-20T03:48:27.679Z,83.70
2023-06-20T03:50:58.137Z,83.70
2023-06-20T03:53:27.306Z,83.80
2023-06-20T03:55:56.403Z,83.90
2023-06-20T03:58:26.918Z,84.00
2023-06-20T04:00:58.797Z,84.10
2023-06-20T04:03:36.277Z,84.00
2023-06-20T04:06:23.917Z,83.90
2023-06-20T04:11:51.772Z,83.90
2023-06-20T04:14:27.025Z,84.00
2023-06-20T04:16:57.633Z,84.00
2023-06-20T04:19:26.865Z,84.00
2023-06-20T04:21:56.037Z,84.10
2023-06-20T04:24:25.168Z,84.10
2023-06-20T04:30:46.576Z,84.00
2023-06-20T04:33:30.278Z,84.00
2023-06-20T04:36:00.660Z,83.90
2023-06-20T04:38:34.526Z,83.90
2023-06-20T04:41:03.631Z,84.00
2023-06-20T04:43:46.588Z,84.20
2023-06-20T04:46:16.649Z,84.40
2023-06-20T04:48:50.135Z,84.30
2023-06-20T04:51:28.650Z,84.50
2023-06-20T04:53:57.991Z,84.50
2023-06-20T04:56:34.165Z,84.60
2023-06-20T04:59:05.433Z,84.70
2023-06-20T05:01:35.875Z,84.80
2023-06-20T05:04:33.108Z,84.90
2023-06-20T05:07:03.196Z,85.10
2023-06-20T05:09:32.417Z,85.10
2023-06-20T05:12:05.388Z,85.10
2023-06-20T05:14:34.927Z,85.20
2023-06-20T05:17:04.222Z,85.20
2023-06-20T05:19:35.352Z,85.30
2023-06-20T05:22:04.630Z,85.40
2023-06-20T05:24:41.324Z,85.40
2023-06-20T05:27:11.484Z,85.50
2023-06-20T05:29:40.543Z,85.50
2023-06-20T05:32:16.258Z,85.70
2023-06-20T05:35:04.175Z,85.70
2023-06-20T05:37:33.622Z,85.90
2023-06-20T05:40:02.985Z,85.90
2023-06-20T05:42:39.639Z,86.00
2023-06-20T05:45:10.849Z,86.10
2023-06-20T05:47:40.006Z,86.10
2023-06-20T05:50:11.240Z,86.20
2023-06-20T05:52:40.339Z,86.20
2023-06-20T05:55:10.946Z,86.20
2023-06-20T05:57:40.138Z,87.30
2023-06-20T06:00:16.335Z,86.40
2023-06-20T06:02:50.929Z,86.50
2023-06-20T06:05:21.621Z,87.30
2023-06-20T06:07:51.820Z,86.50
2023-06-20T06:10:21.400Z,86.50
2023-06-20T06:12:50.438Z,86.50
2023-06-20T06:15:24.965Z,86.60
2023-06-20T06:17:54.128Z,86.60
2023-06-20T06:20:26.335Z,86.60
2023-06-20T06:22:56.848Z,86.70
2023-06-20T06:25:26.077Z,86.80
2023-06-20T06:27:56.163Z,86.90
2023-06-20T06:30:26.024Z,86.90
2023-06-20T06:32:56.276Z,86.90
2023-06-20T06:35:27.059Z,86.80
2023-06-20T06:37:57.669Z,86.80
2023-06-20T06:40:27.852Z,86.80
2023-06-20T06:42:57.176Z,86.70
2023-06-20T06:45:31.098Z,86.60
2023-06-20T06:48:03.328Z,86.60
2023-06-20T06:50:36.120Z,86.60
2023-06-20T06:53:05.220Z,86.70
2023-06-20T06:55:34.343Z,86.60
2023-06-20T06:58:03.597Z,86.60
2023-06-20T07:00:33.789Z,86.60
2023-06-20T07:03:03.026Z,86.60
2023-06-20T07:05:33.508Z,86.70
2023-06-20T07:08:02.780Z,86.80
2023-06-20T07:10:32.005Z,86.90
2023-06-20T07:13:07.529Z,87.00
2023-06-20T07:15:36.619Z,87.10
2023-06-20T07:18:05.943Z,87.10
2023-06-20T07:20:36.432Z,87.10
2023-06-20T07:23:05.540Z,87.10
2023-06-20T07:25:34.612Z,87.20
2023-06-20T07:28:03.769Z,87.20
2023-06-20T07:30:33.703Z,87.10
2023-06-20T07:33:04.089Z,87.10
2023-06-20T07:35:33.284Z,87.00
2023-06-20T07:38:03.835Z,87.90
2023-06-20T07:40:33.001Z,87.00
2023-06-20T07:43:02.045Z,87.00
2023-06-20T07:45:31.168Z,86.80
2023-06-20T07:48:00.309Z,86.90
2023-06-20T07:50:29.393Z,86.70
2023-06-20T07:52:58.452Z,86.60
2023-06-20T07:55:31.139Z,86.20
2023-06-20T07:58:00.770Z,86.00
2023-06-20T08:00:30.037Z,85.80
2023-06-20T08:02:59.188Z,85.60
2023-06-20T08:05:28.608Z,85.30
2023-06-20T08:07:57.974Z,85.10
2023-06-20T08:10:28.495Z,85.10
2023-06-20T08:12:57.586Z,85.10
2023-06-20T08:15:26.962Z,85.00
2023-06-20T08:17:56.316Z,85.00
2023-06-20T08:20:25.448Z,85.00
2023-06-20T08:22:54.626Z,85.00
2023-06-20T08:25:24.041Z,85.20
2023-06-20T08:28:10.092Z,85.40
2023-06-20T08:30:43.360Z,85.20
2023-06-20T08:33:12.524Z,84.80
2023-06-20T08:35:42.283Z,84.60
2023-06-20T08:38:11.757Z,84.40
2023-06-20T08:40:41.173Z,84.30
2023-06-20T08:43:16.900Z,84.40
2023-06-20T08:45:46.706Z,84.20
2023-06-20T08:48:15.882Z,84.00
2023-06-20T08:50:48.693Z,83.50
2023-06-20T08:53:23.376Z,83.10
2023-06-20T08:55:55.339Z,82.60
2023-06-20T08:58:25.623Z,82.10
2023-06-20T09:00:55.272Z,81.80
2023-06-20T09:03:24.504Z,81.50
2023-06-20T09:05:53.719Z,81.30
2023-06-20T09:08:24.571Z,80.90
2023-06-20T09:11:07.717Z,80.40
2023-06-20T09:13:38.568Z,80.00
2023-06-20T09:16:08.849Z,79.70
2023-06-20T09:18:41.681Z,79.20
2023-06-20T09:21:17.608Z,78.90
2023-06-20T09:23:46.680Z,78.40
2023-06-20T09:26:18.313Z,78.30
2023-06-20T09:28:48.830Z,78.10
2023-06-20T09:31:17.955Z,78.10
2023-06-20T09:33:47.078Z,78.00
2023-06-20T09:36:17.060Z,77.90
2023-06-20T09:38:46.735Z,77.90
2023-06-20T09:41:19.052Z,77.40
2023-06-20T09:43:49.613Z,77.00
2023-06-20T09:46:19.504Z,77.10
2023-06-20T09:48:49.722Z,76.70
2023-06-20T09:51:20.070Z,76.30
2023-06-20T09:53:54.328Z,76.20
2023-06-20T09:56:24.696Z,76.50
2023-06-20T09:58:59.697Z,76.50
2023-06-20T10:01:30.441Z,76.50
2023-06-20T10:03:59.809Z,76.30
2023-06-20T10:06:29.356Z,76.30
2023-06-20T10:08:59.134Z,76.60
2023-06-20T10:11:29.993Z,76.40
2023-06-20T10:14:00.983Z,76.30
2023-06-20T10:16:30.965Z,76.00
2023-06-20T10:19:00.160Z,76.00
2023-06-20T10:21:58.475Z,76.30
2023-06-20T10:24:29.495Z,76.00
2023-06-20T10:27:01.972Z,76.20
2023-06-20T10:29:41.728Z,76.00
2023-06-20T10:32:11.720Z,76.00
2023-06-20T10:34:41.883Z,76.10
2023-06-20T10:37:17.703Z,75.90
2023-06-20T10:39:57.346Z,75.60
2023-06-20T10:42:34.241Z,75.30
2023-06-20T10:45:21.332Z,76.20
2023-06-20T10:47:51.684Z,75.20
2023-06-20T10:50:21.214Z,75.60
2023-06-20T10:52:51.027Z,75.60
2023-06-20T10:55:25.006Z,75.80
2023-06-20T10:57:54.459Z,75.50
2023-06-20T11:00:26.188Z,75.30
2023-06-20T11:02:57.176Z,75.20
2023-06-20T11:05:28.144Z,75.00
2023-06-20T11:07:59.595Z,74.70
2023-06-20T11:10:30.391Z,74.80
2023-06-20T11:13:04.532Z,74.80
2023-06-20T11:16:00.736Z,74.60
2023-06-20T11:18:40.467Z,74.40
2023-06-20T11:21:11.032Z,74.50
2023-06-20T11:23:58.834Z,74.50
2023-06-20T11:26:30.874Z,74.30
2023-06-20T11:29:14.239Z,74.10
2023-06-20T11:31:45.956Z,73.90
2023-06-20T11:34:16.729Z,74.10
2023-06-20T11:36:45.833Z,74.30
2023-06-20T11:39:18.338Z,74.50
2023-06-20T11:41:47.599Z,75.00
2023-06-20T11:44:26.121Z,75.10
2023-06-20T11:47:00.219Z,75.40
2023-06-20T11:49:33.218Z,75.80
2023-06-20T11:52:02.671Z,76.20
2023-06-20T11:54:51.135Z,76.30
2023-06-20T11:57:45.214Z,76.60
2023-06-20T12:00:26.094Z,77.20
2023-06-20T12:03:03.644Z,77.80
2023-06-20T12:05:33.488Z,78.40
2023-06-20T12:11:03.159Z,80.30
2023-06-20T12:13:33.800Z,81.00
2023-06-20T12:16:03.427Z,81.70
2023-06-20T12:18:33.997Z,82.10
2023-06-20T12:21:04.498Z,82.40
2023-06-20T12:23:44.672Z,82.80
2023-06-20T12:26:20.950Z,83.30
2023-06-20T12:28:58.919Z,83.80
2023-06-20T12:32:00.895Z,84.10
2023-06-20T12:34:34.128Z,84.60
2023-06-20T12:37:04.642Z,84.50
2023-06-20T12:39:36.989Z,84.70
2023-06-20T12:42:06.765Z,85.00
2023-06-20T12:44:35.908Z,85.20
2023-06-20T12:47:05.383Z,85.50
2023-06-20T12:49:42.584Z,85.50
2023-06-20T12:52:16.713Z,85.90
2023-06-20T12:54:50.315Z,85.90
2023-06-20T12:57:19.589Z,86.00
2023-06-20T12:59:53.064Z,86.10
2023-06-20T13:02:24.157Z,86.20
2023-06-20T13:04:55.030Z,86.30
2023-06-20T13:07:26.253Z,86.30
2023-06-20T13:10:08.044Z,86.40
2023-06-20T13:12:37.453Z,86.50
2023-06-20T13:15:09.834Z,86.60
2023-06-20T13:17:39.475Z,86.80
2023-06-20T13:20:15.295Z,86.80
2023-06-20T13:22:51.573Z,87.00
2023-06-20T13:25:20.990Z,87.10
2023-06-20T13:27:51.723Z,87.20
2023-06-20T13:30:21.329Z,87.40
2023-06-20T13:32:50.582Z,87.50
2023-06-20T13:35:22.964Z,87.60
2023-06-20T13:37:52.329Z,87.80
2023-06-20T13:40:25.383Z,87.80
2023-06-20T13:42:54.599Z,87.90
2023-06-20T13:45:29.884Z,87.80
2023-06-20T13:47:59.154Z,87.80
2023-06-20T13:50:30.046Z,87.80
2023-06-20T13:52:59.280Z,87.90
2023-06-20T13:55:28.422Z,87.90
2023-06-20T13:57:57.637Z,87.90
2023-06-20T14:00:27.356Z,87.80
2023-06-20T14:03:05.051Z,88.00
2023-06-20T14:05:36.283Z,88.00
2023-06-20T14:08:06.055Z,88.00
2023-06-20T14:10:35.301Z,88.20
2023-06-20T14:13:04.485Z,88.20
2023-06-20T14:15:33.618Z,88.20
2023-06-20T14:18:10.961Z,88.20
2023-06-20T14:21:01.247Z,88.40
2023-06-20T14:23:34.724Z,88.50
2023-06-20T14:26:10.020Z,88.30
2023-06-20T14:28:42.851Z,88.30
2023-06-20T14:31:12.130Z,88.40
2023-06-20T14:33:41.306Z,88.40
2023-06-20T14:36:11.831Z,88.50
2023-06-20T14:38:42.265Z,88.60
2023-06-20T14:41:11.676Z,88.70
2023-06-20T14:43:43.153Z,88.70
2023-06-20T14:46:12.723Z,88.80
2023-06-20T14:48:42.002Z,88.80
2023-06-20T14:51:12.688Z,88.90
2023-06-20T14:53:41.782Z,89.10
2023-06-20T14:56:11.059Z,89.20
2023-06-20T14:58:40.241Z,89.30
2023-06-20T15:01:09.573Z,89.30
2023-06-20T15:03:38.902Z,89.40
2023-06-20T15:06:23.965Z,89.50
2023-06-20T15:09:01.615Z,89.50
2023-06-20T15:11:33.280Z,89.50
2023-06-20T15:14:06.192Z,89.60
2023-06-20T15:16:36.134Z,89.70
2023-06-20T15:19:33.019Z,89.70
2023-06-20T15:22:03.695Z,89.90
2023-06-20T15:24:35.064Z,89.70
2023-06-20T15:27:04.290Z,89.90
2023-06-20T15:29:33.653Z,90.00
2023-06-20T15:32:03.011Z,90.00
2023-06-20T15:34:33.214Z,90.10
2023-06-20T15:37:03.708Z,90.10
2023-06-20T15:39:35.104Z,90.20
2023-06-20T15:42:06.046Z,90.10
2023-06-20T15:44:36.294Z,90.00
2023-06-20T15:47:05.849Z,90.00
2023-06-20T15:49:34.951Z,89.70
2023-06-20T15:52:06.055Z,89.50
2023-06-20T15:54:35.394Z,89.20
2023-06-20T15:57:07.484Z,88.70
2023-06-20T15:59:37.501Z,88.40
2023-06-20T16:02:07.821Z,88.10
2023-06-20T16:04:36.945Z,87.60
2023-06-20T16:07:09.121Z,87.50
2023-06-20T16:09:38.242Z,87.20
2023-06-20T16:12:09.839Z,87.10
2023-06-20T16:14:40.127Z,87.00
2023-06-20T16:17:10.536Z,87.80
2023-06-20T16:19:39.825Z,86.90
2023-06-20T16:22:14.565Z,86.90
2023-06-20T16:24:44.387Z,86.80
2023-06-20T16:27:14.029Z,86.90
2023-06-20T16:29:44.153Z,86.70
2023-06-20T16:32:14.134Z,86.60
2023-06-20T16:34:43.295Z,86.00
2023-06-20T16:37:13.870Z,85.80
2023-06-20T16:39:43.318Z,85.40
2023-06-20T16:42:12.877Z,85.30
2023-06-20T16:44:42.691Z,85.20
2023-06-20T16:47:11.971Z,85.00
2023-06-20T16:49:41.188Z,84.90
2023-06-20T16:52:10.949Z,84.80
2023-06-20T16:54:41.446Z,85.00
2023-06-20T16:57:10.842Z,85.10
2023-06-20T16:59:40.469Z,85.20
2023-06-20T17:02:09.830Z,85.20
2023-06-20T17:04:38.964Z,85.40
2023-06-20T17:07:08.754Z,85.40
2023-06-20T17:09:40.721Z,85.40
2023-06-20T17:12:11.719Z,85.30
2023-06-20T17:14:41.187Z,85.20
2023-06-20T17:17:10.392Z,85.20
2023-06-20T17:19:39.570Z,85.10
2023-06-20T17:22:11.456Z,84.90
2023-06-20T17:24:44.188Z,84.70
2023-06-20T17:27:15.157Z,84.50
2023-06-20T17:29:44.644Z,84.20
2023-06-20T17:32:13.914Z,84.30
2023-06-20T17:34:45.492Z,83.90
2023-06-20T17:37:14.602Z,83.60
2023-06-20T17:39:45.026Z,83.20
2023-06-20T17:42:14.304Z,82.50
2023-06-20T17:44:45.016Z,82.20
2023-06-20T17:47:14.494Z,82.00
2023-06-20T17:49:43.777Z,82.10
2023-06-20T17:52:12.925Z,82.20
2023-06-20T17:54:42.105Z,82.20
2023-06-20T17:57:12.605Z,82.30
2023-06-20T17:59:41.916Z,82.10
2023-06-20T18:02:11.556Z,82.00
2023-06-20T18:04:41.717Z,81.90
2023-06-20T18:07:10.832Z,82.10
2023-06-20T18:09:39.888Z,82.00
2023-06-20T18:12:10.007Z,82.00
2023-06-20T18:14:40.503Z,81.90
2023-06-20T18:17:09.959Z,82.00
2023-06-20T18:19:51.625Z,82.00
2023-06-20T18:22:27.804Z,82.10
2023-06-20T18:24:58.674Z,82.20
2023-06-20T18:27:28.059Z,82.00
2023-06-20T18:29:58.674Z,82.00
2023-06-20T18:32:27.851Z,81.90
2023-06-20T18:34:57.073Z,81.90
2023-06-20T18:37:26.225Z,81.90
2023-06-20T18:39:55.371Z,81.90
2023-06-20T18:42:24.542Z,81.90
2023-06-20T18:44:53.598Z,82.00
2023-06-20T18:47:24.113Z,82.00
2023-06-20T18:49:55.932Z,81.90
2023-06-20T18:52:25.121Z,81.60
2023-06-20T18:54:54.698Z,81.30
2023-06-20T18:57:25.037Z,81.20
2023-06-20T18:59:54.462Z,81.30
2023-06-20T19:02:25.065Z,81.30
2023-06-20T19:04:57.273Z,81.20
2023-06-20T19:07:29.298Z,81.30
2023-06-20T19:10:06.261Z,82.30
2023-06-20T19:12:37.695Z,81.30
2023-06-20T19:15:07.151Z,81.40
2023-06-20T19:17:42.496Z,81.50
2023-06-20T19:20:13.131Z,81.20
2023-06-20T19:22:42.339Z,81.00
2023-06-20T19:25:11.651Z,80.80
2023-06-20T19:27:41.067Z,80.60
2023-06-20T19:30:11.342Z,80.60
2023-06-20T19:32:42.230Z,80.70
2023-06-20T19:35:11.782Z,80.50
2023-06-20T19:37:41.033Z,80.30
2023-06-20T19:40:11.731Z,80.30
2023-06-20T19:42:41.014Z,80.40
2023-06-20T19:45:10.778Z,80.70
2023-06-20T19:47:41.353Z,81.00
2023-06-20T19:50:11.328Z,81.40
2023-06-20T19:52:40.884Z,81.90
2023-06-20T19:55:11.169Z,82.30
2023-06-20T19:57:43.993Z,82.80
2023-06-20T20:00:15.147Z,83.30
2023-06-20T20:02:45.980Z,83.60
2023-06-20T20:05:15.373Z,83.80
2023-06-20T20:07:44.509Z,84.00
2023-06-20T20:10:13.827Z,84.10
2023-06-20T20:12:44.094Z,84.30
2023-06-20T20:15:13.462Z,84.40
2023-06-20T20:17:42.653Z,84.40
2023-06-20T20:20:13.494Z,84.60
2023-06-20T20:22:42.591Z,84.70
2023-06-20T20:25:13.228Z,84.70
2023-06-20T20:27:42.751Z,84.70
2023-06-20T20:30:13.001Z,84.80
2023-06-20T20:32:46.888Z,84.90
2023-06-20T20:35:18.514Z,85.00
2023-06-20T20:37:47.672Z,85.00
2023-06-20T20:40:16.789Z,85.20
2023-06-20T20:42:47.345Z,85.30
2023-06-20T20:45:16.703Z,85.50
2023-06-20T20:47:45.885Z,85.50
2023-06-20T20:50:15.999Z,85.50
2023-06-20T20:52:46.985Z,85.50
2023-06-20T20:55:16.266Z,85.50
2023-06-20T20:57:45.650Z,85.60
2023-06-20T21:00:15.924Z,85.40
2023-06-20T21:02:45.190Z,85.30
2023-06-20T21:05:14.512Z,85.20
2023-06-20T21:07:43.596Z,85.10
2023-06-20T21:10:14.153Z,85.10
2023-06-20T21:12:43.357Z,85.00
2023-06-20T21:15:13.857Z,85.00
2023-06-20T21:17:43.312Z,84.90
2023-06-20T21:20:13.344Z,84.90
2023-06-20T21:22:43.288Z,84.90
2023-06-20T21:25:13.863Z,84.80
2023-06-20T21:27:43.027Z,84.70
2023-06-20T21:30:12.938Z,84.50
2023-06-20T21:32:42.379Z,85.30
2023-06-20T21:35:11.707Z,84.30
2023-06-20T21:37:40.877Z,84.40
2023-06-20T21:40:11.170Z,84.40
2023-06-20T21:42:41.743Z,84.40
2023-06-20T21:45:12.208Z,84.30
2023-06-20T21:47:41.440Z,84.30
2023-06-20T21:50:11.175Z,84.40
2023-06-20T21:52:40.369Z,84.40
2023-06-20T21:55:10.381Z,84.40
2023-06-20T21:57:39.620Z,84.40
2023-06-20T22:00:11.544Z,84.50
2023-06-20T22:02:41.186Z,84.40
2023-06-20T22:05:10.882Z,84.50
2023-06-20T22:07:40.025Z,84.40
2023-06-20T22:10:10.016Z,84.30
2023-06-20T22:12:39.877Z,84.10
2023-06-20T22:15:11.283Z,83.90
2023-06-20T22:17:40.252Z,83.90
2023-06-20T22:20:12.490Z,83.90
2023-06-20T22:22:41.843Z,83.60
2023-06-20T22:25:11.400Z,83.60
2023-06-20T22:27:40.708Z,83.70
2023-06-20T22:30:12.205Z,84.00
2023-06-20T22:32:41.519Z,84.10
2023-06-20T22:35:10.938Z,84.20
2023-06-20T22:37:40.026Z,84.30
2023-06-20T22:40:10.479Z,85.30
2023-06-20T22:42:39.688Z,84.60
2023-06-20T22:45:10.798Z,84.70
2023-06-20T22:47:40.100Z,84.90
2023-06-20T22:50:10.291Z,84.80
2023-06-20T22:52:40.192Z,84.90
2023-06-20T22:55:10.107Z,84.90
2023-06-20T22:57:39.296Z,84.90
2023-06-20T23:00:12.207Z,84.90
2023-06-20T23:02:41.541Z,84.90
2023-06-20T23:05:11.005Z,84.90
2023-06-20T23:07:40.948Z,85.00
2023-06-20T23:10:11.867Z,84.90
2023-06-20T23:12:41.031Z,84.80
2023-06-20T23:15:12.819Z,84.90
2023-06-20T23:17:41.969Z,85.00
2023-06-20T23:20:14.541Z,85.00
2023-06-20T23:22:44.335Z,84.90
2023-06-20T23:25:14.921Z,84.80
2023-06-20T23:27:46.373Z,84.90
2023-06-20T23:30:17.290Z,84.80
2023-06-20T23:32:46.447Z,84.80
2023-06-20T23:35:16.030Z,84.70
2023-06-20T23:37:45.141Z,84.70
2023-06-20T23:40:14.520Z,84.50
2023-06-20T23:42:43.911Z,84.40
2023-06-20T23:45:13.368Z,84.40
2023-06-20T23:47:43.909Z,84.40
2023-06-20T23:50:13.035Z,84.40
2023-06-20T23:52:42.450Z,84.40
2023-06-20T23:55:11.816Z,84.40
2023-06-20T23:57:41.931Z,84.50
